Current Weather

Purdue University

Lafayette, Indiana (KLAF)

Report from: Tuesday, April 23, 2024 3:54 AM EDT
Current time: Tuesday, April 23, 2024 4:56 AM EDT

Nearby weather – Weather history – Daily summaries
Weather forecast

Temperature11.7°C (53.1°F)
Dew point1.1°C (34.0°F)
Winds 6 kts (3.1 m/s, 6.9 mph) South-Southwest (210°)
Visibility10 mi. (16.1 km)
Clouds Sky clear
Altimeter29.93 in.Hg (1014 mB)
Relative humidity48 %
Density altitude-294 ft. (-90 m)
Sea-level pressure101.3 kPa (1013 mB, 29.92 in.Hg)
Remarks Fully automated report
Automated weather observing station with precipitation discriminator
Flight conditions Visual Meteorological Conditions
Raw dataKLAF 230754Z AUTO 21006KT 10SM CLR 12/01 A2993 RMK AO2 SLP133 T01170011
An error has occurred. This application may no longer respond until reloaded. Reload 🗙